Sorry, our site is temporarily down for maintenance.

SAID31 WIII 080800
METAR WIII 080800Z 25013G19KT 9999 FEW018CB SCT020 30/23 Q1008 NOSIG RMK CB TO SW=